createdAt,value
2019-04-04T00:00:06.609Z,0.00
2019-04-04T00:01:06.598Z,0.00
2019-04-04T00:02:07.129Z,0.00
2019-04-04T00:03:06.577Z,0.00
2019-04-04T00:04:06.566Z,0.00
2019-04-04T00:05:06.557Z,0.00
2019-04-04T00:06:06.543Z,0.00
2019-04-04T00:07:06.623Z,0.00
2019-04-04T00:08:06.548Z,0.00
2019-04-04T00:09:06.510Z,0.00
2019-04-04T00:10:06.501Z,0.00
2019-04-04T00:11:06.719Z,0.00
2019-04-04T00:12:08.040Z,0.00
2019-04-04T00:13:06.467Z,0.00
2019-04-04T00:14:06.471Z,0.00
2019-04-04T00:15:06.444Z,0.00
2019-04-04T00:16:06.462Z,0.00
2019-04-04T00:17:06.427Z,0.00
2019-04-04T00:18:06.436Z,0.00
2019-04-04T00:19:06.405Z,0.00
2019-04-04T00:20:06.390Z,0.00
2019-04-04T00:21:06.379Z,0.00
2019-04-04T00:22:06.386Z,0.00
2019-04-04T00:23:06.890Z,0.00
2019-04-04T00:24:07.128Z,0.00
2019-04-04T00:25:09.785Z,0.00
2019-04-04T00:26:06.328Z,0.00
2019-04-04T00:27:06.344Z,0.00
2019-04-04T00:28:06.301Z,0.00
2019-04-04T00:29:06.296Z,0.00
2019-04-04T00:30:06.289Z,0.00
2019-04-04T00:31:06.298Z,0.00
2019-04-04T00:32:06.256Z,0.00
2019-04-04T00:33:06.266Z,0.00
2019-04-04T00:34:06.236Z,0.00
2019-04-04T00:35:06.238Z,0.00
2019-04-04T00:36:06.227Z,0.00
2019-04-04T00:37:06.222Z,0.00
2019-04-04T00:38:07.077Z,0.00
2019-04-04T00:39:09.157Z,0.00
2019-04-04T00:40:06.171Z,0.00
2019-04-04T00:41:06.162Z,0.00
2019-04-04T00:42:06.151Z,0.00
2019-04-04T00:43:06.141Z,0.00
2019-04-04T00:44:06.167Z,0.00
2019-04-04T00:45:06.125Z,0.00
2019-04-04T00:46:06.107Z,0.00
2019-04-04T00:47:06.097Z,0.00
2019-04-04T00:48:06.104Z,0.00
2019-04-04T00:49:06.106Z,0.00
2019-04-04T00:50:06.670Z,0.00
2019-04-04T00:51:08.027Z,0.00
2019-04-04T00:52:06.041Z,0.00
2019-04-04T00:53:06.031Z,0.00
2019-04-04T00:54:06.060Z,0.00
2019-04-04T00:55:06.013Z,0.00
2019-04-04T00:56:06.005Z,0.00
2019-04-04T00:57:05.995Z,0.00
2019-04-04T00:58:05.982Z,0.00
2019-04-04T00:59:05.974Z,0.00
2019-04-04T01:00:05.985Z,0.00
2019-04-04T01:01:05.945Z,0.00
2019-04-04T01:02:05.941Z,0.00
2019-04-04T01:03:05.931Z,0.00
2019-04-04T01:04:05.914Z,0.00
2019-04-04T01:05:05.928Z,0.00
2019-04-04T01:06:05.893Z,0.00
2019-04-04T01:07:05.907Z,0.00
2019-04-04T01:08:07.027Z,0.00
2019-04-04T01:09:11.806Z,0.00
2019-04-04T01:10:06.883Z,0.00
2019-04-04T01:11:05.863Z,0.00
2019-04-04T01:12:05.834Z,0.00
2019-04-04T01:13:05.819Z,0.00
2019-04-04T01:14:05.810Z,0.00
2019-04-04T01:15:05.822Z,0.00
2019-04-04T01:16:05.795Z,0.00
2019-04-04T01:17:05.787Z,0.00
2019-04-04T01:18:06.059Z,0.00
2019-04-04T01:19:05.761Z,0.00
2019-04-04T01:20:05.772Z,0.00
2019-04-04T01:21:05.763Z,0.00
2019-04-04T01:22:05.732Z,0.00
2019-04-04T01:23:05.727Z,0.00
2019-04-04T01:24:05.704Z,0.00
2019-04-04T01:25:05.692Z,0.00
2019-04-04T01:26:05.698Z,0.00
2019-04-04T01:27:06.221Z,0.00
2019-04-04T01:28:06.111Z,0.00
2019-04-04T01:29:06.026Z,0.00
2019-04-04T01:30:05.646Z,0.00
2019-04-04T01:31:05.653Z,0.00
2019-04-04T01:32:05.620Z,0.00
2019-04-04T01:33:05.607Z,0.00
2019-04-04T01:34:05.609Z,0.00
2019-04-04T01:35:05.600Z,0.00
2019-04-04T01:36:05.599Z,0.00
2019-04-04T01:37:05.564Z,0.00
2019-04-04T01:38:05.553Z,0.00
2019-04-04T01:39:05.543Z,0.00
2019-04-04T01:40:05.556Z,0.00
2019-04-04T01:41:05.561Z,0.00
2019-04-04T01:42:07.171Z,0.00
2019-04-04T01:43:08.817Z,0.00
2019-04-04T01:44:05.636Z,0.00
2019-04-04T01:45:05.479Z,0.00
2019-04-04T01:46:05.471Z,0.00
2019-04-04T01:47:05.474Z,0.00
2019-04-04T01:48:05.455Z,0.00
2019-04-04T01:49:05.441Z,0.00
2019-04-04T01:50:05.432Z,0.00
2019-04-04T01:51:07.803Z,0.00
2019-04-04T01:52:05.430Z,0.00
2019-04-04T01:53:05.421Z,0.00
2019-04-04T01:54:05.387Z,0.00
2019-04-04T01:55:05.385Z,0.00
2019-04-04T01:56:06.783Z,0.00
2019-04-04T01:57:07.824Z,0.00
2019-04-04T01:58:05.359Z,0.00
2019-04-04T01:59:05.326Z,0.00
2019-04-04T02:00:05.324Z,0.00
2019-04-04T02:01:05.312Z,0.00
2019-04-04T02:02:05.301Z,0.00
2019-04-04T02:03:05.324Z,0.00
2019-04-04T02:04:05.294Z,0.00
2019-04-04T02:05:05.266Z,0.00
2019-04-04T02:06:05.258Z,0.00
2019-04-04T02:07:05.248Z,0.00
2019-04-04T02:08:05.229Z,0.00
2019-04-04T02:09:05.239Z,0.00
2019-04-04T02:10:05.960Z,0.00
2019-04-04T02:11:05.875Z,0.00
2019-04-04T02:12:07.692Z,0.00
2019-04-04T02:13:05.219Z,0.00
2019-04-04T02:14:05.170Z,0.00
2019-04-04T02:15:05.162Z,0.00
2019-04-04T02:16:05.190Z,0.00
2019-04-04T02:17:05.138Z,0.00
2019-04-04T02:18:05.123Z,0.00
2019-04-04T02:19:05.146Z,0.00
2019-04-04T02:20:05.106Z,0.00
2019-04-04T02:21:05.099Z,0.00
2019-04-04T02:22:05.081Z,0.00
2019-04-04T02:23:05.070Z,0.00
2019-04-04T02:24:05.066Z,0.00
2019-04-04T02:25:05.075Z,0.00
2019-04-04T02:26:05.755Z,0.00
2019-04-04T02:27:06.940Z,0.00
2019-04-04T02:28:05.015Z,0.00
2019-04-04T02:29:05.006Z,0.00
2019-04-04T02:30:05.021Z,0.00
2019-04-04T02:31:04.990Z,0.00
2019-04-04T02:32:04.980Z,0.00
2019-04-04T02:33:05.046Z,0.00
2019-04-04T02:34:06.374Z,0.00
2019-04-04T02:35:04.965Z,0.00
2019-04-04T02:36:04.960Z,0.00
2019-04-04T02:37:04.923Z,0.00
2019-04-04T02:38:04.917Z,0.00
2019-04-04T02:39:04.920Z,0.00
2019-04-04T02:40:06.071Z,0.00
2019-04-04T02:41:04.893Z,0.00
2019-04-04T02:42:04.871Z,0.00
2019-04-04T02:43:04.860Z,0.00
2019-04-04T02:44:04.865Z,0.00
2019-04-04T02:45:05.642Z,0.00
2019-04-04T02:46:04.849Z,0.00
2019-04-04T02:47:04.816Z,0.00
2019-04-04T02:48:04.807Z,0.00
2019-04-04T02:49:04.791Z,0.00
2019-04-04T02:50:04.789Z,0.00
2019-04-04T02:51:08.014Z,0.00
2019-04-04T02:52:04.766Z,0.00
2019-04-04T02:53:04.769Z,0.00
2019-04-04T02:54:04.739Z,0.00
2019-04-04T02:55:04.731Z,0.00
2019-04-04T02:56:04.741Z,0.00
2019-04-04T02:57:07.969Z,0.00
2019-04-04T02:58:04.702Z,0.00
2019-04-04T02:59:04.693Z,0.00
2019-04-04T03:00:04.680Z,0.00
2019-04-04T03:01:04.760Z,0.00
2019-04-04T03:02:05.861Z,0.00
2019-04-04T03:03:08.281Z,0.00
2019-04-04T03:04:04.638Z,0.00
2019-04-04T03:05:04.628Z,0.00
2019-04-04T03:06:04.652Z,0.00
2019-04-04T03:07:04.606Z,0.00
2019-04-04T03:08:04.735Z,0.00
2019-04-04T03:09:08.880Z,0.00
2019-04-04T03:10:05.572Z,0.00
2019-04-04T03:11:04.563Z,0.00
2019-04-04T03:12:04.576Z,0.00
2019-04-04T03:13:04.537Z,0.00
2019-04-04T03:14:04.789Z,0.00
2019-04-04T03:15:06.309Z,0.00
2019-04-04T03:16:04.520Z,0.00
2019-04-04T03:17:04.524Z,0.00
2019-04-04T03:18:05.565Z,0.00
2019-04-04T03:19:04.500Z,0.00
2019-04-04T03:20:04.459Z,0.00
2019-04-04T03:21:04.448Z,0.00
2019-04-04T03:22:04.468Z,0.00
2019-04-04T03:23:04.427Z,0.00
2019-04-04T03:24:06.510Z,0.00
2019-04-04T03:25:04.417Z,0.00
2019-04-04T03:26:04.397Z,0.00
2019-04-04T03:27:04.421Z,0.00
2019-04-04T03:28:04.385Z,0.00
2019-04-04T03:29:05.751Z,0.00
2019-04-04T03:30:04.370Z,0.00
2019-04-04T03:31:04.441Z,0.00
2019-04-04T03:32:04.331Z,0.00
2019-04-04T03:33:04.338Z,0.00
2019-04-04T03:34:11.286Z,0.00
2019-04-04T03:35:05.307Z,0.00
2019-04-04T03:36:04.293Z,0.00
2019-04-04T03:37:06.566Z,0.00
2019-04-04T03:38:04.293Z,0.00
2019-04-04T03:39:04.271Z,0.00
2019-04-04T03:40:04.246Z,0.00
2019-04-04T03:41:04.234Z,0.00
2019-04-04T03:42:07.147Z,0.00
2019-04-04T03:43:04.236Z,0.00
2019-04-04T03:44:04.207Z,0.00
2019-04-04T03:45:04.214Z,0.00
2019-04-04T03:46:04.184Z,0.00
2019-04-04T03:47:04.174Z,0.00
2019-04-04T03:48:04.169Z,0.00
2019-04-04T03:49:04.179Z,0.00
2019-04-04T03:50:04.146Z,0.00
2019-04-04T03:51:05.253Z,0.00
2019-04-04T03:52:04.119Z,0.00
2019-04-04T03:53:04.121Z,0.00
2019-04-04T03:54:04.121Z,0.00
2019-04-04T03:55:04.089Z,0.00
2019-04-04T03:56:04.144Z,0.00
2019-04-04T03:57:04.074Z,0.00
2019-04-04T03:58:04.056Z,0.00
2019-04-04T03:59:04.047Z,0.00
2019-04-04T04:00:07.170Z,0.00
2019-04-04T04:01:04.062Z,0.00
2019-04-04T04:02:04.022Z,0.00
2019-04-04T04:03:04.007Z,0.00
2019-04-04T04:04:03.991Z,0.00
2019-04-04T04:05:03.981Z,0.00
2019-04-04T04:06:08.456Z,0.00
2019-04-04T04:07:03.978Z,0.00
2019-04-04T04:08:03.951Z,0.00
2019-04-04T04:09:03.949Z,0.00
2019-04-04T04:10:03.935Z,0.00
2019-04-04T04:11:05.764Z,0.00
2019-04-04T04:12:03.915Z,0.00
2019-04-04T04:13:03.896Z,0.00
2019-04-04T04:14:03.894Z,0.00
2019-04-04T04:15:03.882Z,0.00
2019-04-04T04:16:04.052Z,0.00
2019-04-04T04:17:03.874Z,0.00
2019-04-04T04:18:03.848Z,0.00
2019-04-04T04:19:03.839Z,0.00
2019-04-04T04:20:04.805Z,0.00
2019-04-04T04:21:03.813Z,0.00
2019-04-04T04:22:03.827Z,0.00
2019-04-04T04:23:03.797Z,0.00
2019-04-04T04:24:03.820Z,0.00
2019-04-04T04:25:03.904Z,0.00
2019-04-04T04:26:08.308Z,0.00
2019-04-04T04:27:04.743Z,5.62
2019-04-04T04:28:03.739Z,5.62
2019-04-04T04:29:03.740Z,5.62
2019-04-04T04:30:07.286Z,5.62
2019-04-04T04:31:03.707Z,5.62
2019-04-04T04:32:03.708Z,5.62
2019-04-04T04:33:03.720Z,11.25
2019-04-04T04:34:03.686Z,11.25
2019-04-04T04:35:07.388Z,11.25
2019-04-04T04:36:03.653Z,11.25
2019-04-04T04:37:03.639Z,11.25
2019-04-04T04:38:03.645Z,16.88
2019-04-04T04:39:03.636Z,16.88
2019-04-04T04:40:03.623Z,16.88
2019-04-04T04:41:03.621Z,16.88
2019-04-04T04:42:03.594Z,22.50
2019-04-04T04:43:03.595Z,22.50
2019-04-04T04:44:05.546Z,22.50
2019-04-04T04:45:03.554Z,28.12
2019-04-04T04:46:03.599Z,28.12
2019-04-04T04:47:03.543Z,28.12
2019-04-04T04:48:03.536Z,33.75
2019-04-04T04:49:04.297Z,33.75
2019-04-04T04:50:03.516Z,39.38
2019-04-04T04:51:03.488Z,39.38
2019-04-04T04:52:03.510Z,45.00
2019-04-04T04:53:03.482Z,45.00
2019-04-04T04:54:03.493Z,50.62
2019-04-04T04:55:03.457Z,50.62
2019-04-04T04:56:03.438Z,50.62
2019-04-04T04:57:04.771Z,61.88
2019-04-04T04:58:03.418Z,67.50
2019-04-04T04:59:03.402Z,73.12
2019-04-04T05:00:03.426Z,73.12
2019-04-04T05:01:03.390Z,78.75
2019-04-04T05:02:03.372Z,78.75
2019-04-04T05:03:03.361Z,84.38
2019-04-04T05:04:03.387Z,84.38
2019-04-04T05:05:03.352Z,84.38
2019-04-04T05:06:03.480Z,95.62
2019-04-04T05:07:07.083Z,95.62
2019-04-04T05:08:03.307Z,95.62
2019-04-04T05:09:03.304Z,101.25
2019-04-04T05:10:03.316Z,106.88
2019-04-04T05:11:03.282Z,112.50
2019-04-04T05:12:03.265Z,118.12
2019-04-04T05:13:03.265Z,118.12
2019-04-04T05:14:03.244Z,123.75
2019-04-04T05:15:03.253Z,123.75
2019-04-04T05:16:04.801Z,129.38
2019-04-04T05:17:03.224Z,129.38
2019-04-04T05:18:03.208Z,129.38
2019-04-04T05:19:03.192Z,135.00
2019-04-04T05:20:03.186Z,140.62
2019-04-04T05:21:03.176Z,140.62
2019-04-04T05:22:03.186Z,146.25
2019-04-04T05:23:03.152Z,151.88
2019-04-04T05:24:03.135Z,157.50
2019-04-04T05:25:08.494Z,168.75
2019-04-04T05:26:04.115Z,163.12
2019-04-04T05:27:03.999Z,168.75
2019-04-04T05:28:06.010Z,180.00
2019-04-04T05:29:03.090Z,185.62
2019-04-04T05:30:03.085Z,191.25
2019-04-04T05:31:03.068Z,196.88
2019-04-04T05:32:03.065Z,196.88
2019-04-04T05:33:03.070Z,202.50
2019-04-04T05:34:03.110Z,208.12
2019-04-04T05:35:03.038Z,230.62
2019-04-04T05:36:05.045Z,270.00
2019-04-04T05:37:02.998Z,309.38
2019-04-04T05:38:02.987Z,315.00
2019-04-04T05:39:03.012Z,320.62
2019-04-04T05:40:02.992Z,326.25
2019-04-04T05:41:02.958Z,337.50
2019-04-04T05:42:02.947Z,348.75
2019-04-04T05:43:04.100Z,354.38
2019-04-04T05:44:02.944Z,360.00
2019-04-04T05:45:02.912Z,365.62
2019-04-04T05:46:02.909Z,371.25
2019-04-04T05:47:02.890Z,371.25
2019-04-04T05:48:02.909Z,376.88
2019-04-04T05:49:07.711Z,376.88
2019-04-04T05:50:03.881Z,376.88
2019-04-04T05:51:02.868Z,382.50
2019-04-04T05:52:02.846Z,382.50
2019-04-04T05:53:04.193Z,393.75
2019-04-04T05:54:02.822Z,405.00
2019-04-04T05:55:02.829Z,433.12
2019-04-04T05:56:02.794Z,444.38
2019-04-04T05:57:03.379Z,455.62
2019-04-04T05:58:02.775Z,478.12
2019-04-04T05:59:02.762Z,500.62
2019-04-04T06:00:02.812Z,511.88
2019-04-04T06:01:02.755Z,517.50
2019-04-04T06:02:02.733Z,523.12
2019-04-04T06:03:02.731Z,528.75
2019-04-04T06:04:04.078Z,534.38
2019-04-04T06:05:02.695Z,540.00
2019-04-04T06:06:02.714Z,556.88
2019-04-04T06:07:04.336Z,573.75
2019-04-04T06:08:02.694Z,585.00
2019-04-04T06:09:02.703Z,601.88
2019-04-04T06:10:02.684Z,613.12
2019-04-04T06:11:03.601Z,635.62
2019-04-04T06:12:02.693Z,646.88
2019-04-04T06:13:02.656Z,663.75
2019-04-04T06:14:02.641Z,675.00
2019-04-04T06:15:02.641Z,669.38
2019-04-04T06:16:04.240Z,680.62
2019-04-04T06:17:02.652Z,697.50
2019-04-04T06:18:02.563Z,714.38
2019-04-04T06:19:02.555Z,725.62
2019-04-04T06:20:02.553Z,748.12
2019-04-04T06:21:02.568Z,765.00
2019-04-04T06:22:02.585Z,776.25
2019-04-04T06:23:02.534Z,804.38
2019-04-04T06:24:02.503Z,804.38
2019-04-04T06:25:02.522Z,787.50
2019-04-04T06:26:06.474Z,804.38
2019-04-04T06:27:02.476Z,838.12
2019-04-04T06:28:02.567Z,838.12
2019-04-04T06:29:05.436Z,855.00
2019-04-04T06:30:02.431Z,877.50
2019-04-04T06:31:02.420Z,888.75
2019-04-04T06:32:02.416Z,916.88
2019-04-04T06:33:04.845Z,939.38
2019-04-04T06:34:05.578Z,916.88
2019-04-04T06:35:02.385Z,945.00
2019-04-04T06:36:02.363Z,984.38
2019-04-04T06:37:02.359Z,978.75
2019-04-04T06:38:02.370Z,1023.75
2019-04-04T06:39:02.375Z,1035.00
2019-04-04T06:40:02.344Z,1046.25
2019-04-04T06:41:02.311Z,1040.62
2019-04-04T06:42:03.183Z,1051.88
2019-04-04T06:43:03.787Z,1051.88
2019-04-04T06:44:02.305Z,1091.25
2019-04-04T06:45:02.277Z,1125.00
2019-04-04T06:46:02.270Z,1096.88
2019-04-04T06:47:02.311Z,1102.50
2019-04-04T06:48:02.239Z,1147.50
2019-04-04T06:49:04.402Z,1175.62
2019-04-04T06:50:02.247Z,1147.50
2019-04-04T06:51:02.206Z,1158.75
2019-04-04T06:52:02.203Z,1203.75
2019-04-04T06:53:02.192Z,1231.88
2019-04-04T06:54:02.179Z,1243.12
2019-04-04T06:55:02.161Z,1254.38
2019-04-04T06:56:02.196Z,1265.62
2019-04-04T06:57:03.994Z,1293.75
2019-04-04T06:58:02.138Z,1282.50
2019-04-04T06:59:02.129Z,1305.00
2019-04-04T07:00:02.152Z,1321.88
2019-04-04T07:01:02.102Z,1321.88
2019-04-04T07:02:04.997Z,1316.25
2019-04-04T07:03:02.074Z,1372.50
2019-04-04T07:04:02.068Z,1378.12
2019-04-04T07:05:02.132Z,1406.25
2019-04-04T07:06:02.048Z,1378.12
2019-04-04T07:07:02.058Z,1417.50
2019-04-04T07:08:02.021Z,1473.75
2019-04-04T07:09:02.011Z,1513.12
2019-04-04T07:10:02.004Z,1513.12
2019-04-04T07:11:03.304Z,1513.12
2019-04-04T07:12:02.006Z,1530.00
2019-04-04T07:13:14.895Z,1546.88
2019-04-04T07:14:02.952Z,1569.38
2019-04-04T07:15:01.945Z,1597.50
2019-04-04T07:16:06.976Z,1580.62
2019-04-04T07:17:03.038Z,1569.38
2019-04-04T07:18:01.917Z,1552.50
2019-04-04T07:19:01.907Z,1558.12
2019-04-04T07:20:02.665Z,1620.00
2019-04-04T07:21:03.610Z,1659.38
2019-04-04T07:22:01.912Z,1698.75
2019-04-04T07:23:02.199Z,1715.62
2019-04-04T07:24:01.851Z,1766.25
2019-04-04T07:25:05.769Z,1794.38
2019-04-04T07:26:02.825Z,1771.88
2019-04-04T07:27:01.831Z,1766.25
2019-04-04T07:28:01.813Z,1760.62
2019-04-04T07:29:01.825Z,1822.50
2019-04-04T07:30:01.794Z,1788.75
2019-04-04T07:31:02.492Z,1788.75
2019-04-04T07:32:01.771Z,1845.00
2019-04-04T07:33:01.750Z,1867.50
2019-04-04T07:34:01.784Z,1833.75
2019-04-04T07:35:01.734Z,1873.12
2019-04-04T07:36:01.726Z,1873.12
2019-04-04T07:37:01.718Z,1867.50
2019-04-04T07:38:01.706Z,1890.00
2019-04-04T07:39:01.716Z,1974.38
2019-04-04T07:40:03.545Z,2075.62
2019-04-04T07:41:01.664Z,2047.50
2019-04-04T07:42:01.666Z,2013.75
2019-04-04T07:43:01.672Z,1929.38
2019-04-04T07:44:01.653Z,2047.50
2019-04-04T07:45:01.653Z,2036.25
2019-04-04T07:46:15.280Z,2053.12
2019-04-04T07:47:02.604Z,1968.75
2019-04-04T07:48:01.599Z,1935.00
2019-04-04T07:49:01.585Z,2013.75
2019-04-04T07:50:01.595Z,1901.25
2019-04-04T07:51:01.566Z,1884.38
2019-04-04T07:52:02.316Z,1766.25
2019-04-04T07:53:03.904Z,1867.50
2019-04-04T07:54:01.553Z,1738.12
2019-04-04T07:55:01.533Z,2188.12
2019-04-04T07:56:01.543Z,2160.00
2019-04-04T07:57:01.501Z,2233.12
2019-04-04T07:58:01.489Z,2328.75
2019-04-04T07:59:01.480Z,2278.12
2019-04-04T08:00:01.470Z,2143.12
2019-04-04T08:01:01.456Z,2002.50
2019-04-04T08:02:01.479Z,2311.88
2019-04-04T08:03:01.435Z,2368.12
2019-04-04T08:04:01.422Z,2244.38
2019-04-04T08:05:01.413Z,1575.00
2019-04-04T08:06:01.404Z,1501.88
2019-04-04T08:07:01.395Z,2385.00
2019-04-04T08:08:01.404Z,2486.25
2019-04-04T08:09:01.374Z,2435.62
2019-04-04T08:10:01.367Z,2334.38
2019-04-04T08:11:01.352Z,2193.75
2019-04-04T08:12:01.360Z,2221.88
2019-04-04T08:13:01.338Z,2469.38
2019-04-04T08:14:01.321Z,2221.88
2019-04-04T08:15:01.312Z,1693.12
2019-04-04T08:16:01.300Z,1743.75
2019-04-04T08:17:01.305Z,2446.88
2019-04-04T08:18:01.282Z,2508.75
2019-04-04T08:19:01.264Z,2407.50
2019-04-04T08:20:01.256Z,2497.50
2019-04-04T08:21:01.249Z,2559.38
2019-04-04T08:22:01.286Z,2441.25
2019-04-04T08:23:01.223Z,1918.12
2019-04-04T08:24:01.221Z,2098.12
2019-04-04T08:25:01.202Z,2008.12
2019-04-04T08:26:01.194Z,1496.25
2019-04-04T08:27:01.206Z,1046.25
2019-04-04T08:28:01.170Z,1665.00
2019-04-04T08:29:01.163Z,2272.50
2019-04-04T08:30:01.181Z,1822.50
2019-04-04T08:31:01.139Z,1760.62
2019-04-04T08:32:01.132Z,1890.00
2019-04-04T08:33:01.119Z,2205.00
2019-04-04T08:34:01.106Z,2435.62
2019-04-04T08:35:01.096Z,1895.62
2019-04-04T08:36:06.373Z,1963.12
2019-04-04T08:37:02.076Z,2109.38
2019-04-04T08:38:01.063Z,2407.50
2019-04-04T08:39:01.052Z,2497.50
2019-04-04T08:40:01.043Z,2598.75
2019-04-04T08:41:01.056Z,2520.00
2019-04-04T08:42:01.022Z,2508.75
2019-04-04T08:43:01.012Z,2638.12
2019-04-04T08:44:01.004Z,2660.62
2019-04-04T08:45:00.987Z,2621.25
2019-04-04T08:46:01.024Z,2688.75
2019-04-04T08:47:00.968Z,2795.62
2019-04-04T08:48:00.959Z,2880.00
2019-04-04T08:49:00.953Z,2812.50
2019-04-04T08:50:00.942Z,2745.00
2019-04-04T08:51:00.927Z,2688.75
2019-04-04T08:52:00.961Z,2773.12
2019-04-04T08:53:00.923Z,2835.00
2019-04-04T08:54:00.897Z,2739.38
2019-04-04T08:55:00.885Z,2801.25
2019-04-04T08:56:00.874Z,2936.25
2019-04-04T08:57:00.900Z,2919.38
2019-04-04T08:58:00.865Z,2891.25
2019-04-04T08:59:00.864Z,2919.38
2019-04-04T09:00:00.835Z,2857.50
2019-04-04T09:01:00.825Z,2885.62
2019-04-04T09:02:00.820Z,2975.62
2019-04-04T09:03:00.838Z,2992.50
2019-04-04T09:04:00.792Z,2964.38
2019-04-04T09:05:11.264Z,2919.38
2019-04-04T09:06:01.793Z,2891.25
2019-04-04T09:07:00.764Z,2953.12
2019-04-04T09:08:00.755Z,2908.12
2019-04-04T09:09:00.767Z,2902.50
2019-04-04T09:10:00.732Z,3031.88
2019-04-04T09:11:00.725Z,3088.12
2019-04-04T09:12:00.710Z,3020.62
2019-04-04T09:13:00.703Z,2953.12
2019-04-04T09:14:00.716Z,2964.38
2019-04-04T09:15:00.704Z,2885.62
2019-04-04T09:16:00.678Z,2761.88
2019-04-04T09:17:00.729Z,2925.00
2019-04-04T09:18:00.648Z,2936.25
2019-04-04T09:19:00.643Z,2953.12
2019-04-04T09:20:00.807Z,3155.62
2019-04-04T09:21:00.622Z,3217.50
2019-04-04T09:22:00.608Z,3121.88
2019-04-04T09:23:00.602Z,3189.38
2019-04-04T09:24:00.915Z,3245.62
2019-04-04T09:25:01.594Z,3245.62
2019-04-04T09:26:05.819Z,3178.12
2019-04-04T09:27:01.563Z,3200.62
2019-04-04T09:28:00.553Z,3296.25
2019-04-04T09:29:00.538Z,3324.38
2019-04-04T09:30:00.526Z,3251.25
2019-04-04T09:31:00.540Z,3133.12
2019-04-04T09:32:00.521Z,3088.12
2019-04-04T09:33:00.499Z,3206.25
2019-04-04T09:34:00.491Z,3245.62
2019-04-04T09:35:00.504Z,3195.00
2019-04-04T09:36:00.823Z,3166.88
2019-04-04T09:37:00.459Z,3262.50
2019-04-04T09:38:00.450Z,3116.25
2019-04-04T09:39:00.435Z,3020.62
2019-04-04T09:40:00.826Z,2660.62
2019-04-04T09:41:00.437Z,3054.38
2019-04-04T09:42:00.406Z,3369.38
2019-04-04T09:43:00.399Z,3448.12
2019-04-04T09:44:00.396Z,3262.50
2019-04-04T09:45:00.374Z,2694.38
2019-04-04T09:46:00.403Z,2947.50
2019-04-04T09:47:05.670Z,3217.50
2019-04-04T09:48:01.346Z,3290.62
2019-04-04T09:49:00.336Z,3560.62
2019-04-04T09:50:00.333Z,3498.75
2019-04-04T09:51:00.345Z,3206.25
2019-04-04T09:52:00.328Z,3414.38
2019-04-04T09:53:00.317Z,3425.62
2019-04-04T09:54:00.289Z,3256.88
2019-04-04T09:55:00.280Z,3133.12
2019-04-04T09:56:00.272Z,3088.12
2019-04-04T09:57:00.280Z,2700.00
2019-04-04T09:58:00.247Z,2840.62
2019-04-04T09:59:00.234Z,2362.50
2019-04-04T10:00:00.228Z,2503.12
2019-04-04T10:01:00.221Z,2328.75
2019-04-04T10:02:00.228Z,2525.62
2019-04-04T10:03:00.228Z,2666.25
2019-04-04T10:04:00.191Z,2986.88
2019-04-04T10:05:00.178Z,2986.88
2019-04-04T10:06:00.166Z,3031.88
2019-04-04T10:07:00.160Z,2818.12
2019-04-04T10:08:00.359Z,2756.25
2019-04-04T10:09:00.175Z,2964.38
2019-04-04T10:10:00.129Z,3054.38
2019-04-04T10:11:00.116Z,3065.62
2019-04-04T10:12:00.107Z,3217.50
2019-04-04T10:13:00.097Z,2773.12
2019-04-04T10:14:00.091Z,3172.50
2019-04-04T10:15:00.102Z,3071.25
2019-04-04T10:16:00.068Z,3211.88
2019-04-04T10:17:00.745Z,2981.25
2019-04-04T10:18:00.070Z,3352.50
2019-04-04T10:19:00.037Z,3391.88
2019-04-04T10:20:00.031Z,3521.25
2019-04-04T10:21:11.094Z,3138.75
2019-04-04T10:22:01.006Z,3256.88
2019-04-04T10:23:00.023Z,3571.88
2019-04-04T10:23:59.995Z,3673.12
2019-04-04T10:24:59.976Z,3465.00
2019-04-04T10:25:59.995Z,3476.25
2019-04-04T10:27:00.008Z,3375.00
2019-04-04T10:27:59.947Z,2503.12
2019-04-04T10:28:59.954Z,2503.12
2019-04-04T10:29:59.941Z,2328.75
2019-04-04T10:30:59.917Z,2694.38
2019-04-04T10:31:59.925Z,2981.25
2019-04-04T10:32:59.899Z,3352.50
2019-04-04T10:33:59.923Z,3690.00
2019-04-04T10:34:59.885Z,3560.62
2019-04-04T10:35:59.870Z,3645.00
2019-04-04T10:36:59.855Z,3594.38
2019-04-04T10:37:59.846Z,3307.50
2019-04-04T10:38:59.842Z,2863.12
2019-04-04T10:39:59.847Z,3009.38
2019-04-04T10:40:59.817Z,3448.12
2019-04-04T10:41:59.830Z,3397.50
2019-04-04T10:42:59.798Z,3110.62
2019-04-04T10:43:59.790Z,2981.25
2019-04-04T10:44:59.809Z,3144.38
2019-04-04T10:45:59.768Z,3009.38
2019-04-04T10:46:59.759Z,3268.12
2019-04-04T10:47:59.750Z,3375.00
2019-04-04T10:48:59.741Z,3369.38
2019-04-04T10:49:59.734Z,3706.88
2019-04-04T10:50:59.738Z,3684.38
2019-04-04T10:51:59.709Z,3543.75
2019-04-04T10:52:59.698Z,3645.00
2019-04-04T10:53:59.687Z,3442.50
2019-04-04T10:55:01.548Z,3420.00
2019-04-04T10:55:59.692Z,3459.38
2019-04-04T10:56:59.658Z,3459.38
2019-04-04T10:57:59.657Z,3481.88
2019-04-04T10:58:59.639Z,3504.38
2019-04-04T11:00:03.002Z,3583.12
2019-04-04T11:00:59.637Z,3538.12
2019-04-04T11:02:00.933Z,3706.88
2019-04-04T11:02:59.621Z,3706.88
2019-04-04T11:03:59.597Z,3549.38
2019-04-04T11:04:59.582Z,3431.25
2019-04-04T11:05:59.572Z,3481.88
2019-04-04T11:06:59.574Z,3498.75
2019-04-04T11:07:59.567Z,3526.88
2019-04-04T11:08:59.537Z,3358.12
2019-04-04T11:09:59.534Z,3330.00
2019-04-04T11:10:59.548Z,3318.75
2019-04-04T11:11:59.507Z,3279.38
2019-04-04T11:12:59.500Z,3802.50
2019-04-04T11:13:59.487Z,3796.88
2019-04-04T11:14:59.479Z,3780.00
2019-04-04T11:15:59.472Z,3161.25
2019-04-04T11:16:59.478Z,3234.38
2019-04-04T11:17:59.467Z,3588.75
2019-04-04T11:18:59.436Z,3616.88
2019-04-04T11:19:59.431Z,3577.50
2019-04-04T11:20:59.426Z,3549.38
2019-04-04T11:21:59.409Z,3498.75
2019-04-04T11:22:59.416Z,3155.62
2019-04-04T11:23:59.386Z,2885.62
2019-04-04T11:24:59.390Z,2317.50
2019-04-04T11:25:59.373Z,1940.62
2019-04-04T11:26:59.359Z,2019.38
2019-04-04T11:27:59.465Z,3391.88
2019-04-04T11:28:59.367Z,3436.88
2019-04-04T11:29:59.344Z,3481.88
2019-04-04T11:30:59.322Z,3436.88
2019-04-04T11:31:59.331Z,2261.25
2019-04-04T11:32:59.315Z,2750.62
2019-04-04T11:33:59.355Z,3628.12
2019-04-04T11:34:59.280Z,3718.12
2019-04-04T11:35:59.271Z,3751.88
2019-04-04T11:36:59.791Z,3723.75
2019-04-04T11:37:59.255Z,3560.62
2019-04-04T11:38:59.239Z,3729.38
2019-04-04T11:39:59.272Z,3791.25
2019-04-04T11:40:59.217Z,3920.62
2019-04-04T11:41:59.241Z,3875.62
2019-04-04T11:42:59.217Z,3391.88
2019-04-04T11:43:59.868Z,2930.62
2019-04-04T11:44:59.187Z,2581.88
2019-04-04T11:45:59.169Z,2806.88
2019-04-04T11:46:59.156Z,2829.38
2019-04-04T11:47:59.184Z,2767.50
2019-04-04T11:48:59.138Z,2902.50
2019-04-04T11:49:59.131Z,2913.75
2019-04-04T11:50:59.173Z,2750.62
2019-04-04T11:51:59.132Z,2970.00
2019-04-04T11:52:59.102Z,2756.25
2019-04-04T11:53:59.088Z,2098.12
2019-04-04T11:54:59.087Z,1805.62
2019-04-04T11:55:59.072Z,1726.88
2019-04-04T11:56:59.075Z,2418.75
2019-04-04T11:57:59.089Z,2576.25
2019-04-04T11:58:59.037Z,2469.38
2019-04-04T11:59:59.028Z,3341.25
2019-04-04T12:00:59.020Z,3459.38
2019-04-04T12:01:59.013Z,2981.25
2019-04-04T12:02:59.029Z,2053.12
2019-04-04T12:03:58.991Z,2261.25
2019-04-04T12:04:59.028Z,1828.12
2019-04-04T12:05:58.971Z,2216.25
2019-04-04T12:06:58.963Z,1530.00
2019-04-04T12:07:58.976Z,1282.50
2019-04-04T12:08:58.951Z,1260.00
2019-04-04T12:10:07.401Z,1293.75
2019-04-04T12:10:59.921Z,1473.75
2019-04-04T12:11:58.911Z,1546.88
2019-04-04T12:12:58.920Z,1518.75
2019-04-04T12:13:58.887Z,2120.62
2019-04-04T12:14:58.907Z,2002.50
2019-04-04T12:15:58.868Z,3583.12
2019-04-04T12:16:58.875Z,2992.50
2019-04-04T12:17:58.854Z,2261.25
2019-04-04T12:18:58.836Z,1794.38
2019-04-04T12:19:58.827Z,1665.00
2019-04-04T12:20:58.837Z,1951.88
2019-04-04T12:21:58.858Z,2677.50
2019-04-04T12:22:58.799Z,2891.25
2019-04-04T12:23:58.789Z,3588.75
2019-04-04T12:24:58.778Z,3245.62
2019-04-04T12:25:58.792Z,3695.62
2019-04-04T12:26:58.759Z,3909.38
2019-04-04T12:27:58.749Z,3948.75
2019-04-04T12:28:58.738Z,3875.62
2019-04-04T12:29:58.745Z,3796.88
2019-04-04T12:30:58.722Z,3588.75
2019-04-04T12:31:58.713Z,3521.25
2019-04-04T12:32:58.788Z,3532.50
2019-04-04T12:33:58.685Z,3718.12
2019-04-04T12:34:58.715Z,3841.88